Tiempo atmosférico en la estación meteorológica de Medina Sidonia, Cádiz (90 m.)



Fecha
DESCASC
Temp. máxima en grados centígrados (hora)
DESCASC
Temp. mínima en grados centígrados (hora)
DESCASC
Temp. media en grados centígrados
DESCASC
Racha de viento máxima en m/sg (hora)
DESCASC
Velocidad máxima media en intervalos de 10 minutos(hora)
DESCASC
Precipitaciones diarias en mm
DESCASC
Precipitaciones de 00:00 a 06:00 en mm
DESCASC
Precipitaciones de 06:00 a 12:00 en mm
DESCASC
Precipitaciones de 12:00 a 18:00 en mm
DESCASC
Precipitaciones de 18:00 a 24:00 en mm
DESCASC
22-01-2020 11.9 (13:40) 7.8 (06:00) 9.8 8.61 (10:50) 5.28 (14:30) 16.4 0.6 3.8 7 5
21-01-2020 13.7 (14:40) 2.8 (08:00) 8.2 6.67 (15:20) 3.33 (22:20) 0 0 0 0 0
20-01-2020 12.7 (15:40) 5.5 (08:50) 9.1 9.44 (02:00) 5.56 (16:10) 0 0 0 0 0
19-01-2020 16.1 (00:40) 8.5 (00:00) 12.3 16.39 (01:00) 10 (01:00) 1.8 1.8 0 0 0
18-01-2020 16.4 (15:00) 8.1 (00:00) 12.3 10.28 (21:40) 6.67 (21:00) 3.6 0.2 0 1 2.4
17-01-2020 17.8 (14:10) 4.4 (00:00) 11.1 6.67 (15:00) 4.72 (15:00) 0 0 0 0 0
16-01-2020 20 (14:50) 3.2 (00:00) 11.6 5.83 (13:40) 4.17 (17:20) 0 0 0 0 0
15-01-2020 18.5 (14:40) 2.8 (00:00) 10.6 7.22 (14:30) 4.72 (14:50) 0 0 0 0 0
14-01-2020 17.1 (15:00) 3.1 (00:00) 10.1 4.72 (13:30) 3.33 (17:10) 0 0 0 0 0
13-01-2020 17.8 (16:50) 6 (00:00) 11.9 8.06 (12:30) 5.83 (11:40) 0 0 0 0 0
12-01-2020 17.5 (15:30) 5.2 (00:00) 11.3 6.11 (11:50) 4.44 (11:40) 0 0 0 0 0
11-01-2020 16.7 (13:40) 2.6 (00:00) 9.7 8.89 (17:50) 6.39 (17:40) 0 0 0 0 0
10-01-2020 14.9 (16:00) 3.9 (00:00) 9.4 6.11 (14:50) 4.17 (15:00) 0 0 0 0 0
09-01-2020 17.8 (15:50) 7.7 (00:00) 12.7 7.78 (00:20) 5.83 (00:40) 0 0 0 0 0
08-01-2020 19.8 (16:00) 3.2 (00:00) 11.5 7.78 (23:59) 5 (23:59) 0 0 0 0 0
07-01-2020 17.9 (16:40) 5.6 (00:00) 11.7 9.72 (12:10) 7.22 (11:50) 0 0 0 0 0
06-01-2020 16.9 (15:40) 7.1 (00:00) 12 9.44 (11:00) 6.39 (11:00) 0 0 0 0 0
05-01-2020 16.4 (13:30) 8.9 (00:00) 12.6 13.61 (12:50) 10 (15:50) 0 0 0 0 0
04-01-2020 16.2 (15:50) 2.6 (00:00) 9.4 8.06 (17:00) 5.28 (17:00) 0 0 0 0 0
03-01-2020 16.3 (14:40) 5.3 (00:00) 10.8 6.67 (14:40) 3.33 (14:30) 0 0 0 0 0
02-01-2020 17.4 (16:40) 7.3 (00:00) 12.3 9.72 (11:50) 7.78 (11:50) 0 0 0 0 0
01-01-2020 17.2 (14:50) 7.6 (00:00) 12.4 11.39 (02:20) 8.06 (02:20) 0 0 0 0 0
31-12-2019 16.2 (13:40) 11.6 (00:00) 13.9 18.89 (13:50) 13.33 (13:50) 0 0 0 0 0
30-12-2019 -- (--) -- (--) -- -- (--) -- (--) -- 0 0 0 --
29-12-2019 16.3 (14:00) 12.4 (00:00) 14.3 22.22 (12:30) 16.67 (11:00) 0 0 0 0 0
28-12-2019 17.1 (14:50) 13.3 (00:00) 15.2 18.61 (23:40) 12.78 (23:59) 0 0 0 0 0
27-12-2019 18.4 (13:40) 10.1 (00:00) 14.3 17.78 (13:10) 12.22 (12:40) 0 0 0 0 0
26-12-2019 22.2 (14:20) 8.9 (00:00) 15.6 5.56 (01:40) 3.61 (15:40) 0 0 0 0 0
25-12-2019 23.2 (15:40) 10.2 (00:00) 16.7 8.89 (13:30) 6.94 (13:30) 0 0 0 0 0

Gráficas

Temp. máximas Temp. mínimas Temp. medias Precipitaciones Rachas de viento máximas Velocidades máximas media en intervalos de 10 minutos

Datos horarios

Fecha y hora oficial Temperatura (ºC) Velocidad del viento (km/h) Dirección del viento Racha (km/h) Dirección de racha Precipitación (mm) Presión (hPa) Tendencia (hPa) Humedad (%)
2020-01-23 23:00:00 10.5 9 Sudeste 17 Sudeste 0 -- -- 95
2020-01-23 22:00:00 10.4 6 Sudeste 10 Este 0.8 -- -- 96
2020-01-23 21:00:00 10.3 9 Este 16 Sudeste 4.2 -- -- 96
2020-01-23 20:00:00 9.8 5 Sudeste 18 Sudeste 0.6 -- -- 95
2020-01-23 19:00:00 10 6 Sudeste 22 Sur 4.6 -- -- 92
2020-01-23 18:00:00 10.5 2 Sudeste 31 Sudoeste 5.8 -- -- 91
2020-01-23 17:00:00 11.7 15 Sudoeste 28 Sudoeste 3.4 -- -- 88
2020-01-23 16:00:00 12.6 6 Sudoeste 16 Sur 0.8 -- -- 86
2020-01-23 15:00:00 12.7 7 Sur 31 Sudeste 0.8 -- -- 85
2020-01-23 14:00:00 14 18 Sur 32 Sudeste 0 -- -- 75
2020-01-23 13:00:00 13.4 18 Sudeste 40 Sur 0 -- -- 78
2020-01-23 12:00:00 13.5 15 Sudeste 29 Sur 0 -- -- 80
2020-01-23 11:00:00 12.1 12 Sudeste 22 Sudeste 0 -- -- 83
2020-01-23 10:00:00 10.4 6 Sudeste 18 Sudeste 0 -- -- 91
2020-01-23 09:00:00 10.5 9 Sur 20 Sudeste 0 -- -- 90
2020-01-23 08:00:00 10.2 6 Sudeste 17 Sur 1.8 -- -- 92
2020-01-23 07:00:00 10 3 Sudeste 14 Sur 0.6 -- -- 91
2020-01-23 06:00:00 10.4 9 Sudeste 18 Sudeste 0 -- -- 87
2020-01-23 05:00:00 10 5 Sudeste 10 Sur 0 -- -- 89
2020-01-23 04:00:00 10.3 4 Sudeste 12 Sudeste 0 -- -- 89
2020-01-23 03:00:00 10.1 0 Calma 10 Sudeste 0 -- -- 91
2020-01-23 02:00:00 10.2 5 Sudeste 14 Sudeste 0.2 -- -- 90
2020-01-23 01:00:00 10.1 5 Sudeste 14 Sur 0 -- -- 91
2020-01-23 00:00:00 9.5 5 Sudeste 13 Sudeste 0.2 -- -- 93
2020-01-22 23:00:00 9.1 5 Sudeste 10 Sudeste 0 -- -- 94
2020-01-22 22:00:00 9.2 4 Sudeste 12 Sudeste 0 -- -- 94
2020-01-22 21:00:00 9.9 9 Sudeste 18 Sudeste 2.2 -- -- 94
2020-01-22 20:00:00 10 8 Este 12 Este 1 -- -- 94
2020-01-22 19:00:00 10.2 3 Sur 12 Este 1.6 -- -- 93
2020-01-22 18:00:00 10.3 4 Sur 9 Este 1 -- -- 92
2020-01-22 17:00:00 10.4 8 Sudeste 17 Sudeste 2.4 -- -- 90
2020-01-22 16:00:00 10.8 7 Sur 22 Este 3.6 -- -- 92
2020-01-22 15:00:00 11.2 12 Sudeste 24 Sudeste 0 -- -- 86
2020-01-22 14:00:00 11.4 15 Sudeste 25 Este 0 -- -- 85
2020-01-22 13:00:00 11.4 12 Este 17 Este 0 -- -- 88
2020-01-22 12:00:00 10.3 6 Este 13 Sudeste 0.2 -- -- 92
2020-01-22 11:00:00 9.4 9 Sudeste 31 Sudoeste 3 -- -- 91
2020-01-22 10:00:00 8.5 0 Calma 5 Oeste 0.2 -- -- 94
2020-01-22 09:00:00 8.1 2 Oeste 3 Sudeste 0.2 -- -- 94
2020-01-22 08:00:00 7.9 2 Oeste 5 Oeste 0 -- -- 93
2020-01-22 07:00:00 7.8 3 Noroeste 5 Noroeste 0.2 -- -- 93
2020-01-22 06:00:00 7.8 3 Noroeste 4 Noroeste 0.2 -- -- 92
2020-01-22 05:00:00 7.9 0 Calma 5 Noroeste 0.2 -- -- 91
2020-01-22 04:00:00 8 0 Calma 3 Oeste 0.2 -- -- 89
2020-01-22 03:00:00 8 2 Oeste 3 Oeste 0 -- -- 88
2020-01-22 02:00:00 8 0 Calma 3 Oeste 0 -- -- 86
2020-01-22 01:00:00 8 0 Calma 4 Sudeste 0 -- -- 86
2020-01-22 00:00:00 8.2 0 Calma 6 Este 0 -- -- 82
2020-01-21 23:00:00 8.9 0 Calma 14 Oeste 0 -- -- 77
2020-01-21 22:00:00 9.1 8 Oeste 13 Oeste 0 -- -- 74
2020-01-21 21:00:00 9.1 6 Oeste 10 Oeste 0 -- -- 75
2020-01-21 20:00:00 9 4 Noroeste 10 Noroeste 0 -- -- 73
2020-01-21 19:00:00 9.6 2 Noroeste 8 Noroeste 0 -- -- 71
2020-01-21 18:00:00 11.9 4 Noroeste 16 Noroeste 0 -- -- 63
2020-01-21 17:00:00 12.1 8 Noroeste 19 Noroeste 0 -- -- 61
2020-01-21 16:00:00 13.2 9 Noroeste 24 Noroeste 0 -- -- 59
2020-01-21 15:00:00 13.5 8 Noroeste 17 Norte 0 -- -- 59
2020-01-21 14:00:00 13.2 8 Noroeste 18 Oeste 0 -- -- 57
2020-01-21 13:00:00 12.8 5 Norte 16 Noroeste 0 -- -- 60
2020-01-21 12:00:00 11.1 6 Norte 23 Noroeste 0 -- -- 65
2020-01-21 11:00:00 9.9 10 Noroeste 18 Noroeste 0 -- -- 71
2020-01-21 10:00:00 6.6 3 Oeste 12 Nordeste 0 -- -- 86
2020-01-21 09:00:00 3.5 2 Noroeste 7 Noroeste 0 -- -- 93
2020-01-21 08:00:00 2.8 3 Oeste 8 Oeste 0 -- -- 89
2020-01-21 07:00:00 3.6 4 Oeste 6 Oeste 0 -- -- 89
2020-01-21 06:00:00 4.5 3 Oeste 8 Sudoeste 0 -- -- 89
2020-01-21 05:00:00 6 2 Norte 11 Noroeste 0 -- -- 84
2020-01-21 04:00:00 6.5 0 Calma 10 Oeste 0 -- -- 83
2020-01-21 03:00:00 7.1 5 Noroeste 8 Noroeste 0 -- -- 83
2020-01-21 02:00:00 8.2 3 Noroeste 5 Oeste 0 -- -- 81
2020-01-21 01:00:00 8 2 Oeste 5 Noroeste 0 -- -- 83
2020-01-21 00:00:00 8.1 3 Noroeste 9 Nordeste 0 -- -- 76
2020-01-20 23:00:00 8.1 3 Norte 8 Norte 0 -- -- 74
2020-01-20 22:00:00 8.7 0 Calma 13 Nordeste 0 -- -- 71
2020-01-20 21:00:00 8.9 4 Norte 15 Nordeste 0 -- -- 71
2020-01-20 20:00:00 9.1 6 Nordeste 21 Nordeste 0 -- -- 70
2020-01-20 19:00:00 8.4 10 Nordeste 25 Nordeste 0 -- -- 77
2020-01-20 18:00:00 9.7 12 Nordeste 31 Este 0 -- -- 76
2020-01-20 17:00:00 11.3 16 Este 26 Sudeste 0 -- -- 66
2020-01-20 16:00:00 12 18 Este 26 Sudeste 0 -- -- 58
2020-01-20 15:00:00 12.4 8 Nordeste 18 Nordeste 0 -- -- 53
2020-01-20 14:00:00 11.7 5 Norte 19 Nordeste 0 -- -- 57
2020-01-20 13:00:00 11.2 6 Norte 18 Nordeste 0 -- -- 58
2020-01-20 12:00:00 10.4 8 Nordeste 20 Nordeste 0 -- -- 63
2020-01-20 11:00:00 7.5 4 Norte 18 Norte 0 -- -- 69
2020-01-20 10:00:00 7.2 4 Noroeste 19 Noroeste 0 -- -- 69
2020-01-20 09:00:00 5.8 9 Norte 17 Norte 0 -- -- 72
2020-01-20 08:00:00 5.9 7 Norte 18 Noroeste 0 -- -- 73
2020-01-20 07:00:00 6.2 6 Noroeste 22 Noroeste 0 -- -- 74
2020-01-20 06:00:00 6.4 10 Norte 23 Nordeste 0 -- -- 74
2020-01-20 05:00:00 7.6 13 Nordeste 32 Nordeste 0 -- -- 68
2020-01-20 04:00:00 7.7 6 Norte 25 Nordeste 0 -- -- 71
2020-01-20 03:00:00 7.4 8 Norte 27 Norte 0 -- -- 73
2020-01-20 02:00:00 7.6 11 Norte 34 Nordeste 0 -- -- 74
2020-01-20 01:00:00 8 7 Norte 30 Nordeste 0 -- -- 73
2020-01-20 00:00:00 8.5 11 Nordeste 30 Norte 0 -- -- 71
2020-01-19 23:00:00 9.2 11 Norte 33 Nordeste 0 -- -- 67
2020-01-19 22:00:00 10.5 9 Norte 34 Norte 0 -- -- 61
2020-01-19 21:00:00 10.4 10 Norte 20 Noroeste 0 -- -- 69
2020-01-19 20:00:00 10.5 3 Nordeste 10 Nordeste 0 -- -- 68
2020-01-19 19:00:00 11.5 5 Norte 20 Norte 0 -- -- 67
2020-01-19 18:00:00 12.4 5 Norte 16 Norte 0 -- -- 63
2020-01-19 17:00:00 12.6 5 Norte 40 Nordeste 0 -- -- 68
2020-01-19 16:00:00 15 8 Norte 23 Norte 0 -- -- 60
2020-01-19 15:00:00 14.8 13 Noroeste 30 Noroeste 0 -- -- 60
2020-01-19 14:00:00 13.7 14 Noroeste 28 Noroeste 0 -- -- 64
2020-01-19 13:00:00 13.6 12 Norte 28 Norte 0 -- -- 68
2020-01-19 12:00:00 12.8 14 Noroeste 33 Noroeste 0 -- -- 76
2020-01-19 11:00:00 11.7 17 Noroeste 32 Noroeste 0 -- -- 80
2020-01-19 10:00:00 10.5 17 Noroeste 24 Noroeste 0 -- -- 85
2020-01-19 09:00:00 9.5 13 Oeste 31 Oeste 0 -- -- 87
2020-01-19 08:00:00 10.1 21 Noroeste 41 Noroeste 0 -- -- 83
2020-01-19 07:00:00 10.9 28 Noroeste 41 Noroeste 0 -- -- 81
2020-01-19 06:00:00 11.7 27 Noroeste 38 Noroeste 0 -- -- 80
2020-01-19 05:00:00 12.3 23 Noroeste 34 Noroeste 0 -- -- 84
2020-01-19 04:00:00 11.9 19 Noroeste 30 Noroeste 0 -- -- 87
2020-01-19 03:00:00 11.8 15 Noroeste 29 Noroeste 0 -- -- 87
2020-01-19 02:00:00 12.9 18 Noroeste 46 Noroeste 0 -- -- 85
2020-01-19 01:00:00 15.3 36 Noroeste 59 Oeste 1.8 -- -- 88
2020-01-19 00:00:00 15.9 20 Oeste 30 Oeste 0 -- -- 93
2020-01-18 23:00:00 15.8 18 Oeste 34 Noroeste 0 -- -- 93
2020-01-18 22:00:00 16 22 Oeste 37 Oeste 1 -- -- 94
2020-01-18 21:00:00 15.7 24 Oeste 34 Sudoeste 0 -- -- 95
2020-01-18 20:00:00 15.6 21 Oeste 34 Oeste 1 -- -- 94
2020-01-18 19:00:00 15.4 18 Oeste 32 Sudoeste 0.4 -- -- 94
2020-01-18 18:00:00 15.4 19 Sudoeste 31 Sudoeste 0.8 -- -- 93
2020-01-18 17:00:00 15.4 14 Sudoeste 29 Sudoeste 0.2 -- -- 92
2020-01-18 16:00:00 16.1 13 Sudoeste 26 Sur 0 -- -- 87
2020-01-18 15:00:00 16.4 10 Sudoeste 22 Sudoeste 0 -- -- 84
2020-01-18 14:00:00 15.1 8 Sur 16 Sudeste 0 -- -- 93
2020-01-18 13:00:00 13.3 4 Sur 11 Sur 0 -- -- 98
2020-01-18 12:00:00 11.6 0 Calma 4 Este 0 -- -- 98
2020-01-18 11:00:00 10.7 2 Sudeste 6 Sudeste 0 -- -- 98
2020-01-18 10:00:00 9.9 3 Este 5 Sudeste 0 -- -- 98
2020-01-18 09:00:00 9.1 3 Este 5 Este 0 -- -- 97
2020-01-18 08:00:00 8.9 3 Este 4 Este 0 -- -- 97
2020-01-18 07:00:00 8.6 0 Calma 8 Este 0 -- -- 97
2020-01-18 06:00:00 8.3 0 Calma 3 Este 0 -- -- 97
2020-01-18 05:00:00 8.3 0 Calma 5 Este 0.2 -- -- 97
2020-01-18 04:00:00 8.7 0 Calma 3 Noroeste 0 -- -- 96
2020-01-18 03:00:00 9.8 0 Calma 9 Oeste 0 -- -- 97
2020-01-18 02:00:00 10.4 3 Noroeste 4 Noroeste 0 -- -- 96
2020-01-18 01:00:00 11.1 3 Noroeste 3 Noroeste 0 -- -- 97
2020-01-18 00:00:00 11.1 0 Calma 4 Noroeste 0 -- -- 96
2020-01-17 23:00:00 9.5 0 Calma 6 Sudeste 0 -- -- 95
2020-01-17 22:00:00 10 3 Oeste 6 Oeste 0 -- -- 95
2020-01-17 21:00:00 11.5 2 Este 5 Este 0 -- -- 93
2020-01-17 20:00:00 12.6 2 Oeste 8 Oeste 0 -- -- 89
2020-01-17 19:00:00 14.5 2 Sur 8 Sudoeste 0 -- -- 86
2020-01-17 18:00:00 16.3 3 Sudoeste 22 Oeste 0 -- -- 80
2020-01-17 17:00:00 16.7 16 Oeste 22 Oeste 0 -- -- 79
2020-01-17 16:00:00 17.2 14 Oeste 22 Sudoeste 0 -- -- 76
2020-01-17 15:00:00 17.8 17 Oeste 24 Oeste 0 -- -- 74
2020-01-17 14:00:00 17.7 3 Sur 12 Sudoeste 0 -- -- 74
2020-01-17 13:00:00 16 6 Sur 11 Sudeste 0 -- -- 78
2020-01-17 12:00:00 14 5 Sudeste 9 Este 0 -- -- 79
2020-01-17 11:00:00 11.7 3 Este 5 Este 0 -- -- 86
2020-01-17 10:00:00 8.3 2 Oeste 5 Este 0 -- -- 93
2020-01-17 09:00:00 7 2 Nordeste 7 Este 0 -- -- 93
2020-01-17 08:00:00 6.4 0 Calma 3 Sudoeste 0 -- -- 96
2020-01-17 07:00:00 4.9 2 Este 4 Este 0 -- -- 93
2020-01-17 06:00:00 5.2 2 Este 4 Nordeste 0 -- -- 95
2020-01-17 05:00:00 4.6 2 Oeste 3 Oeste 0 -- -- 94
2020-01-17 04:00:00 4.5 2 Oeste 4 Este 0 -- -- 92
2020-01-17 03:00:00 5.1 0 Calma 4 Nordeste 0 -- -- 94
2020-01-17 02:00:00 5.4 0 Calma 4 Noroeste 0 -- -- 94
2020-01-17 01:00:00 6.2 3 Este 4 Este 0 -- -- 91
2020-01-17 00:00:00 7 0 Calma 2 Nordeste 0 -- -- 89
2020-01-16 23:00:00 7.4 0 Calma 4 Oeste 0 -- -- 88
2020-01-16 22:00:00 8.3 3 Noroeste 5 Oeste 0 -- -- 86
2020-01-16 21:00:00 9 3 Noroeste 4 Noroeste 0 -- -- 84
2020-01-16 20:00:00 11.1 0 Calma 7 Nordeste 0 -- -- 74
2020-01-16 19:00:00 13.4 3 Noroeste 18 Sudoeste 0 -- -- 67
2020-01-16 18:00:00 16.3 13 Sudoeste 21 Oeste 0 -- -- 61
2020-01-16 17:00:00 18.4 12 Sudoeste 20 Sudoeste 0 -- -- 54
2020-01-16 16:00:00 19.9 6 Sur 17 Sur 0 -- -- 38
2020-01-16 15:00:00 19.8 9 Sur 18 Sur 0 -- -- 37
2020-01-16 14:00:00 19.1 10 Sudeste 21 Sudeste 0 -- -- 41
2020-01-16 13:00:00 17.8 9 Sudeste 18 Sudeste 0 -- -- 52
2020-01-16 12:00:00 16 12 Sudeste 16 Sudeste 0 -- -- 62
2020-01-16 11:00:00 12.8 4 Sudeste 8 Este 0 -- -- 82
2020-01-16 10:00:00 8 0 Calma 4 Noroeste 0 -- -- 93
2020-01-16 09:00:00 6.2 0 Calma 5 Noroeste 0 -- -- 92
2020-01-16 08:00:00 5.8 4 Noroeste 6 Oeste 0 -- -- 94
2020-01-16 07:00:00 5.2 4 Noroeste 8 Oeste 0 -- -- 86
2020-01-16 06:00:00 4.3 3 Oeste 5 Noroeste 0 -- -- 84
2020-01-16 05:00:00 4 3 Noroeste 5 Oeste 0 -- -- 86
2020-01-16 04:00:00 3.9 0 Calma 6 Noroeste 0 -- -- 87
2020-01-16 03:00:00 3.7 2 Nordeste 4 Oeste 0 -- -- 89
2020-01-16 02:00:00 4.2 2 Norte 5 Noroeste 0 -- -- 84
2020-01-16 01:00:00 4.8 5 Noroeste 7 Oeste 0 -- -- 89
2020-01-16 00:00:00 5.5 3 Noroeste 5 Oeste 0 -- -- 86
2020-01-15 23:00:00 6.5 0 Calma 5 Oeste 0 -- -- 86
2020-01-15 22:00:00 6.9 4 Oeste 6 Noroeste 0 -- -- 81
2020-01-15 21:00:00 8.3 4 Noroeste 6 Oeste 0 -- -- 81
2020-01-15 20:00:00 9.9 4 Noroeste 9 Oeste 0 -- -- 73
2020-01-15 19:00:00 11.8 4 Oeste 9 Sur 0 -- -- 66
2020-01-15 18:00:00 16.8 6 Sudoeste 19 Sur 0 -- -- 47
2020-01-15 17:00:00 18.2 11 Sudoeste 25 Sudoeste 0 -- -- 41
2020-01-15 16:00:00 18.4 14 Sudoeste 26 Sur 0 -- -- 42
2020-01-15 15:00:00 18.2 15 Sudoeste 26 Sudoeste 0 -- -- 45
2020-01-15 14:00:00 18.3 12 Sur 24 Sudeste 0 -- -- 45
2020-01-15 13:00:00 17.5 15 Sudeste 25 Sudeste 0 -- -- 53
2020-01-15 12:00:00 15.5 11 Sur 26 Sudoeste 0 -- -- 65
2020-01-15 11:00:00 10.7 7 Este 10 Este 0 -- -- 85
2020-01-15 10:00:00 6.1 3 Este 4 Este 0 -- -- 97
2020-01-15 09:00:00 3.6 2 Noroeste 3 Noroeste 0 -- -- 96
2020-01-15 08:00:00 3.4 0 Calma 2 Este 0 -- -- 95
2020-01-15 07:00:00 3.7 0 Calma 2 Nordeste 0 -- -- 94
2020-01-15 06:00:00 4.1 0 Calma 2 Oeste 0 -- -- 94
2020-01-15 05:00:00 4.6 0 Calma 3 Nordeste 0 -- -- 91
2020-01-15 04:00:00 5.1 0 Calma 2 Este 0 -- -- 92
2020-01-15 03:00:00 5.7 0 Calma 2 Oeste 0 -- -- 91
2020-01-15 02:00:00 6.2 0 Calma 3 Este 0 -- -- 89
2020-01-15 01:00:00 6.8 0 Calma 3 Noroeste 0 -- -- 89
2020-01-15 00:00:00 7.8 0 Calma 5 Noroeste 0 -- -- 86
2020-01-14 23:00:00 7.9 3 Oeste 5 Oeste 0 -- -- 87
2020-01-14 22:00:00 7.8 4 Oeste 4 Oeste 0 -- -- 84
2020-01-14 21:00:00 8.8 3 Noroeste 5 Noroeste 0 -- -- 82
2020-01-14 20:00:00 10.3 2 Este 7 Oeste 0 -- -- 72
2020-01-14 19:00:00 11.7 6 Oeste 12 Oeste 0 -- -- 68
2020-01-14 18:00:00 14.6 9 Sudoeste 16 Oeste 0 -- -- 59
2020-01-14 17:00:00 15.7 9 Oeste 15 Sudoeste 0 -- -- 55
2020-01-14 16:00:00 16.7 8 Oeste 14 Noroeste 0 -- -- 48
2020-01-14 15:00:00 17.1 4 Norte 12 Noroeste 0 -- -- 46
2020-01-14 14:00:00 16.2 6 Norte 17 Oeste 0 -- -- 52
2020-01-14 13:00:00 14.7 7 Oeste 15 Oeste 0 -- -- 52
2020-01-14 12:00:00 11.9 3 Sudeste 9 Este 0 -- -- 79
2020-01-14 11:00:00 8.8 4 Sudeste 9 Este 0 -- -- 90
2020-01-14 10:00:00 5 3 Este 4 Este 0 -- -- 97
2020-01-14 09:00:00 3.8 0 Calma 5 Noroeste 0 -- -- 95
2020-01-14 08:00:00 4 0 Calma 4 Oeste 0 -- -- 95
2020-01-14 07:00:00 3.7 0 Calma 5 Oeste 0 -- -- 95
2020-01-14 06:00:00 3.2 2 Noroeste 4 Este 0 -- -- 94
2020-01-14 05:00:00 4.2 2 Noroeste 2 Oeste 0 -- -- 95
2020-01-14 04:00:00 4.8 0 Calma 2 Oeste 0 -- -- 94
2020-01-14 03:00:00 5.3 0 Calma 2 Nordeste 0 -- -- 94
2020-01-14 02:00:00 5.5 2 Noroeste 5 Este 0 -- -- 94
2020-01-14 01:00:00 6.7 0 Calma 5 Noroeste 0 -- -- 94
2020-01-14 00:00:00 6.8 2 Noroeste 4 Noroeste 0 -- -- 89
2020-01-13 23:00:00 7.9 3 Oeste 6 Noroeste 0 -- -- 90
2020-01-13 22:00:00 8.2 3 Oeste 8 Oeste 0 -- -- 88
2020-01-13 21:00:00 8.9 3 Oeste 6 Oeste 0 -- -- 84
2020-01-13 20:00:00 11.4 0 Calma 15 Oeste 0 -- -- 76
2020-01-13 19:00:00 12 12 Oeste 15 Oeste 0 -- -- 73
2020-01-13 18:00:00 15 11 Oeste 13 Sudoeste 0 -- -- 63
2020-01-13 17:00:00 17.7 8 Sudoeste 14 Sudeste 0 -- -- 50
2020-01-13 16:00:00 17.3 6 Sudeste 12 Sudeste 0 -- -- 53
2020-01-13 15:00:00 16.6 6 Sudeste 20 Este 0 -- -- 55
2020-01-13 14:00:00 16.7 11 Este 22 Este 0 -- -- 59
2020-01-13 13:00:00 16 17 Este 29 Este 0 -- -- 60
2020-01-13 12:00:00 15 21 Este 28 Sudeste 0 -- -- 68
2020-01-13 11:00:00 13.5 13 Sudeste 22 Sudeste 0 -- -- 77
2020-01-13 10:00:00 10.8 7 Sudeste 12 Sudeste 0 -- -- 85
2020-01-13 09:00:00 8.1 2 Sur 6 Sudeste 0 -- -- 93
2020-01-13 08:00:00 7.6 0 Calma 5 Este 0 -- -- 94
2020-01-13 07:00:00 7.8 0 Calma 3 Sur 0 -- -- 95
2020-01-13 06:00:00 6.9 0 Calma 7 Sudeste 0 -- -- 93
2020-01-13 05:00:00 6.8 0 Calma 4 Oeste 0 -- -- 96
2020-01-13 04:00:00 6 3 Oeste 5 Noroeste 0 -- -- 93
2020-01-13 03:00:00 7.2 0 Calma 4 Oeste 0 -- -- 94
2020-01-13 02:00:00 8 3 Noroeste 8 Sudeste 0 -- -- 93
2020-01-13 01:00:00 7.4 2 Oeste 4 Noroeste 0 -- -- 93
2020-01-13 00:00:00 7.8 2 Noroeste 5 Noroeste 0 -- -- 91
2020-01-12 23:00:00 7.7 3 Oeste 5 Oeste 0 -- -- 89
2020-01-12 22:00:00 8.4 2 Oeste 5 Noroeste 0 -- -- 87
2020-01-12 21:00:00 9.2 3 Noroeste 6 Sudoeste 0 -- -- 81
2020-01-12 20:00:00 9.8 3 Oeste 9 Sudeste 0 -- -- 68
2020-01-12 19:00:00 12.1 4 Noroeste 9 Norte 0 -- -- 60
2020-01-12 18:00:00 16.3 4 Noroeste 10 Nordeste 0 -- -- 52
2020-01-12 17:00:00 17.1 8 Nordeste 17 Nordeste 0 -- -- 47
2020-01-12 16:00:00 17.5 6 Norte 14 Nordeste 0 -- -- 45
2020-01-12 15:00:00 17.2 5 Norte 17 Nordeste 0 -- -- 50
2020-01-12 14:00:00 16.7 6 Noroeste 17 Este 0 -- -- 54
2020-01-12 13:00:00 15.9 10 Este 21 Este 0 -- -- 58
2020-01-12 12:00:00 14.9 12 Este 22 Este 0 -- -- 65
2020-01-12 11:00:00 11.1 2 Noroeste 7 Oeste 0 -- -- 72
2020-01-12 10:00:00 7.3 4 Oeste 7 Noroeste 0 -- -- 86
2020-01-12 09:00:00 5.2 3 Oeste 5 Oeste 0 -- -- 90
2020-01-12 08:00:00 5.9 3 Noroeste 5 Oeste 0 -- -- 87
2020-01-12 07:00:00 6.8 3 Noroeste 6 Oeste 0 -- -- 88
2020-01-12 06:00:00 6.5 3 Oeste 5 Oeste 0 -- -- 90
2020-01-12 05:00:00 7.2 2 Sudeste 6 Este 0 -- -- 88
2020-01-12 04:00:00 8.9 0 Calma 8 Sudeste 0 -- -- 85
2020-01-12 03:00:00 9 3 Sudeste 10 Sudeste 0 -- -- 84
2020-01-12 02:00:00 9.2 2 Sudeste 17 Sudeste 0 -- -- 83
2020-01-12 01:00:00 9 12 Este 18 Este 0 -- -- 82
2020-01-12 00:00:00 9.7 9 Sudeste 17 Sudeste 0 -- -- 80
2020-01-11 23:00:00 7.3 2 Sur 4 Sudeste 0 -- -- 88
2020-01-11 22:00:00 8.8 0 Calma 7 Este 0 -- -- 79
2020-01-11 21:00:00 9.6 6 Este 10 Este 0 -- -- 74
2020-01-11 20:00:00 9.5 0 Calma 4 Nordeste 0 -- -- 72
2020-01-11 19:00:00 11.9 0 Calma 21 Este 0 -- -- 64
2020-01-11 18:00:00 14.5 19 Este 32 Este 0 -- -- 55
2020-01-11 17:00:00 16.2 17 Este 28 Sudeste 0 -- -- 52
2020-01-11 16:00:00 16.3 18 Este 24 Este 0 -- -- 54
2020-01-11 15:00:00 16.7 13 Sudeste 26 Sudeste 0 -- -- 56
2020-01-11 14:00:00 15.2 15 Este 28 Este 0 -- -- 59
2020-01-11 13:00:00 15.5 17 Sudeste 27 Este 0 -- -- 63
2020-01-11 12:00:00 15 15 Sudeste 24 Sudeste 0 -- -- 69
2020-01-11 11:00:00 10 2 Oeste 5 Oeste 0 -- -- 81
2020-01-11 10:00:00 5.7 3 Oeste 8 Oeste 0 -- -- 87
2020-01-11 09:00:00 3.1 5 Oeste 9 Oeste 0 -- -- 91
2020-01-11 08:00:00 2.6 6 Oeste 8 Oeste 0 -- -- 89
2020-01-11 07:00:00 3.5 3 Oeste 5 Noroeste 0 -- -- 88
2020-01-11 06:00:00 3.5 5 Oeste 7 Oeste 0 -- -- 86
2020-01-11 05:00:00 4 4 Oeste 7 Oeste 0 -- -- 86
2020-01-11 04:00:00 4 3 Oeste 6 Oeste 0 -- -- 84
2020-01-11 03:00:00 5.4 4 Noroeste 7 Oeste 0 -- -- 82
2020-01-11 02:00:00 5.6 3 Noroeste 4 Noroeste 0 -- -- 80
2020-01-11 01:00:00 7.3 0 Calma 7 Sudoeste 0 -- -- 76
2020-01-11 00:00:00 8.7 2 Noroeste 17 Norte 0 -- -- 74
2020-01-10 23:00:00 9.7 7 Norte 13 Norte 0 -- -- 78
2020-01-10 22:00:00 9.5 4 Noroeste 12 Norte 0 -- -- 80
2020-01-10 21:00:00 10.6 5 Nordeste 14 Norte 0 -- -- 76
2020-01-10 20:00:00 11.2 9 Norte 15 Noroeste 0 -- -- 75
2020-01-10 19:00:00 11.8 5 Norte 12 Noroeste 0 -- -- 73
2020-01-10 18:00:00 13.2 5 Noroeste 15 Noroeste 0 -- -- 70
2020-01-10 17:00:00 14.2 7 Noroeste 20 Noroeste 0 -- -- 67
2020-01-10 16:00:00 14.9 11 Noroeste 20 Oeste 0 -- -- 63
2020-01-10 15:00:00 14.8 15 Noroeste 22 Oeste 0 -- -- 63
2020-01-10 14:00:00 13.6 9 Noroeste 16 Oeste 0 -- -- 69
2020-01-10 13:00:00 12.3 3 Noroeste 13 Noroeste 0 -- -- 78
2020-01-10 12:00:00 10.5 7 Noroeste 13 Noroeste 0 -- -- 87
2020-01-10 11:00:00 9.2 4 Noroeste 11 Noroeste 0 -- -- 94
2020-01-10 10:00:00 8.8 7 Noroeste 18 Noroeste 0 -- -- 96
2020-01-10 09:00:00 5.9 2 Este 4 Nordeste 0 -- -- 95
2020-01-10 08:00:00 5.2 0 Calma 3 Oeste 0 -- -- 96
2020-01-10 07:00:00 4.2 3 Este 6 Este 0 -- -- 95
2020-01-10 06:00:00 4.1 0 Calma 6 Oeste 0 -- -- 95
2020-01-10 05:00:00 5.2 0 Calma 9 Oeste 0 -- -- 94
2020-01-10 04:00:00 5 3 Noroeste 9 Norte 0 -- -- 97
2020-01-10 03:00:00 5.8 0 Calma 5 Noroeste 0 -- -- 93
2020-01-10 02:00:00 6.5 0 Calma 6 Noroeste 0 -- -- 92
2020-01-10 01:00:00 6.5 4 Oeste 6 Oeste 0 -- -- 93
2020-01-10 00:00:00 7.7 2 Sudoeste 12 Oeste 0 -- -- 89
2020-01-09 23:00:00 8.4 0 Calma 5 Noroeste 0 -- -- 90
2020-01-09 22:00:00 9.2 4 Noroeste 7 Sudoeste 0 -- -- 86
2020-01-09 21:00:00 10.9 0 Calma 12 Noroeste 0 -- -- 84
2020-01-09 20:00:00 11.9 11 Noroeste 22 Oeste 0 -- -- 82
2020-01-09 19:00:00 13.1 15 Oeste 24 Noroeste 0 -- -- 78
2020-01-09 18:00:00 14.6 9 Oeste 18 Oeste 0 -- -- 66
2020-01-09 17:00:00 16.7 3 Sudoeste 9 Este 0 -- -- 59
2020-01-09 16:00:00 17.7 5 Sudeste 14 Este 0 -- -- 50
2020-01-09 15:00:00 17.3 6 Sudeste 23 Este 0 -- -- 54
2020-01-09 14:00:00 16.9 9 Sudeste 25 Este 0 -- -- 58
2020-01-09 13:00:00 16.1 20 Este 27 Este 0 -- -- 65
2020-01-09 12:00:00 15.4 18 Sudeste 27 Este 0 -- -- 69
2020-01-09 11:00:00 14.1 19 Este 26 Este 0 -- -- 72
2020-01-09 10:00:00 12 6 Sudeste 11 Sudeste 0 -- -- 81
2020-01-09 09:00:00 9.8 0 Calma 11 Sudeste 0 -- -- 88
2020-01-09 08:00:00 10.5 8 Sudeste 21 Sudeste 0 -- -- 85
2020-01-09 07:00:00 10.7 12 Sudeste 18 Sudeste 0 -- -- 84
2020-01-09 06:00:00 10.7 10 Sudeste 18 Sudeste 0 -- -- 85
2020-01-09 05:00:00 10.8 9 Sudeste 24 Sudeste 0 -- -- 85
2020-01-09 04:00:00 11.2 15 Sudeste 25 Sudeste 0 -- -- 83
2020-01-09 03:00:00 11.3 16 Sudeste 28 Sudeste 0 -- -- 84
2020-01-09 02:00:00 11.4 16 Sudeste 27 Este 0 -- -- 83
2020-01-09 01:00:00 11.5 18 Sudeste 28 Sudeste 0 -- -- 83
2020-01-09 00:00:00 11.3 18 Este 28 Este 0 -- -- 84
2020-01-08 23:00:00 10 8 Este 17 Sudeste 0 -- -- 87
2020-01-08 22:00:00 8.9 2 Sur 10 Sudeste 0 -- -- 90
2020-01-08 21:00:00 9 3 Noroeste 6 Noroeste 0 -- -- 84
2020-01-08 20:00:00 11.7 0 Calma 12 Oeste 0 -- -- 75
2020-01-08 19:00:00 13.2 10 Oeste 18 Oeste 0 -- -- 71
2020-01-08 18:00:00 16.3 12 Oeste 14 Oeste 0 -- -- 59
2020-01-08 17:00:00 19.2 7 Noroeste 10 Noroeste 0 -- -- 49
2020-01-08 16:00:00 19.8 4 Norte 10 Norte 0 -- -- 42
2020-01-08 15:00:00 19.1 5 Noroeste 10 Oeste 0 -- -- 44
2020-01-08 14:00:00 18.5 3 Nordeste 12 Nordeste 0 -- -- 49
2020-01-08 13:00:00 16.8 4 Este 7 Sudeste 0 -- -- 54
2020-01-08 12:00:00 14.2 3 Este 5 Nordeste 0 -- -- 71
2020-01-08 11:00:00 10.2 0 Calma 4 Sudoeste 0 -- -- 87
2020-01-08 10:00:00 5.8 4 Oeste 5 Oeste 0 -- -- 96
2020-01-08 09:00:00 3.2 2 Noroeste 5 Noroeste 0 -- -- 95
2020-01-08 08:00:00 4.4 3 Noroeste 5 Oeste 0 -- -- 96
2020-01-08 07:00:00 4.6 3 Noroeste 4 Noroeste 0 -- -- 96
2020-01-08 06:00:00 5.3 4 Oeste 6 Noroeste 0 -- -- 94
2020-01-08 05:00:00 5.5 5 Noroeste 7 Oeste 0 -- -- 94
2020-01-08 04:00:00 5.6 4 Oeste 6 Oeste 0 -- -- 95
2020-01-08 03:00:00 5.6 4 Oeste 8 Noroeste 0 -- -- 95
2020-01-08 02:00:00 6.3 3 Oeste 5 Oeste 0 -- -- 92
2020-01-08 01:00:00 7.2 3 Nordeste 8 Este 0 -- -- 92
2020-01-08 00:00:00 7 3 Noroeste 4 Noroeste 0 -- -- 89
2020-01-07 23:00:00 7.4 0 Calma 4 Oeste 0 -- -- 91
2020-01-07 22:00:00 8.4 3 Oeste 5 Noroeste 0 -- -- 88
2020-01-07 21:00:00 10 2 Sur 8 Sur 0 -- -- 84
2020-01-07 20:00:00 9.9 0 Calma 5 Este 0 -- -- 78
2020-01-07 19:00:00 12.5 0 Calma 6 Sudeste 0 -- -- 67
2020-01-07 18:00:00 15.8 6 Sudeste 21 Este 0 -- -- 61
2020-01-07 17:00:00 17.5 14 Este 24 Este 0 -- -- 51
2020-01-07 16:00:00 17.7 17 Este 24 Este 0 -- -- 46
2020-01-07 15:00:00 17.2 16 Sudeste 32 Sudeste 0 -- -- 55
2020-01-07 14:00:00 16.6 19 Este 28 Este 0 -- -- 60
2020-01-07 13:00:00 15.7 17 Este 35 Este 0 -- -- 66
2020-01-07 12:00:00 14.5 25 Sudeste 34 Este 0 -- -- 72
2020-01-07 11:00:00 13.1 7 Sudeste 13 Sudeste 0 -- -- 79
2020-01-07 10:00:00 9.7 3 Sudeste 9 Sudeste 0 -- -- 92
2020-01-07 09:00:00 5.9 2 Noroeste 6 Sudoeste 0 -- -- 92
2020-01-07 08:00:00 6.1 2 Oeste 7 Nordeste 0 -- -- 92
2020-01-07 07:00:00 8.4 4 Nordeste 11 Nordeste 0 -- -- 84
2020-01-07 06:00:00 8.2 3 Norte 8 Noroeste 0 -- -- 92
2020-01-07 05:00:00 8.6 4 Norte 8 Nordeste 0 -- -- 92
2020-01-07 04:00:00 7.5 3 Sudoeste 9 Sudoeste 0 -- -- 95
2020-01-07 03:00:00 6 3 Oeste 4 Oeste 0 -- -- 93
2020-01-07 02:00:00 6.4 3 Oeste 6 Oeste 0 -- -- 94
2020-01-07 01:00:00 6.9 3 Oeste 4 Oeste 0 -- -- 92
2020-01-07 00:00:00 7.9 2 Oeste 9 Este 0 -- -- 90
2020-01-06 23:00:00 7.6 2 Oeste 5 Oeste 0 -- -- 89
2020-01-06 22:00:00 9.3 0 Calma 9 Sudeste 0 -- -- 87
2020-01-06 21:00:00 9.7 2 Sudeste 8 Sudeste 0 -- -- 82
2020-01-06 20:00:00 10.8 5 Sudeste 17 Este 0 -- -- 78
2020-01-06 19:00:00 11.9 6 Sudeste 24 Este 0 -- -- 73
2020-01-06 18:00:00 14.5 18 Este 23 Este 0 -- -- 65
2020-01-06 17:00:00 16.2 17 Este 23 Sudeste 0 -- -- 58
2020-01-06 16:00:00 16.7 15 Sudeste 22 Sudeste 0 -- -- 56
2020-01-06 15:00:00 16.7 14 Sudeste 24 Este 0 -- -- 57
2020-01-06 14:00:00 16.3 15 Sudeste 21 Este 0 -- -- 60
2020-01-06 13:00:00 15.1 11 Sudeste 22 Sudeste 0 -- -- 65
2020-01-06 12:00:00 15.2 18 Este 29 Este 0 -- -- 64
2020-01-06 11:00:00 14 23 Este 34 Este 0 -- -- 72
2020-01-06 10:00:00 9.7 0 Calma 4 Noroeste 0 -- -- 87